Time;durP1;ratioP1;P1;durP2;ratioP2;P2;SDS_P1;SDS_P2;PMS_P1;PMS_P2;Temp;Humidity;BMP_temperature;BMP_pressure;BME280_temperature;BME280_humidity;BME280_pressure;Samples;Min_cycle;Max_cycle;Signal;HPM_P1;HPM_P2
2023/11/27 00:01:02;;;;;;;3.22;1.85;;;21.90;57.20;;;;;;4955272;28;86970;-8
2023/11/27 00:03:28;;;;;;;3.75;1.95;;;21.90;57.10;;;;;;4954187;28;86969;-6
2023/11/27 00:05:54;;;;;;;2.60;1.70;;;21.80;57.10;;;;;;4954814;28;86804;-7
2023/11/27 00:08:19;;;;;;;3.10;1.88;;;21.80;57.10;;;;;;4953937;28;86883;-8
2023/11/27 00:10:45;;;;;;;3.58;1.98;;;21.80;57.10;;;;;;4960334;28;87591;-8
2023/11/27 00:13:11;;;;;;;2.63;1.83;;;21.80;57.20;;;;;;4959575;28;86565;-8
2023/11/27 00:15:36;;;;;;;2.70;1.80;;;21.80;57.00;;;;;;4955944;28;86123;-10
2023/11/27 00:18:02;;;;;;;2.75;1.55;;;21.80;57.20;;;;;;4960252;28;86318;-11
2023/11/27 00:20:28;;;;;;;3.00;1.52;;;21.70;57.10;;;;;;4956950;28;87204;-6
2023/11/27 00:22:53;;;;;;;2.85;1.35;;;21.70;57.10;;;;;;4955772;28;86722;-7
2023/11/27 00:25:19;;;;;;;3.45;1.75;;;21.70;57.20;;;;;;4957473;28;85686;-8
2023/11/27 00:27:45;;;;;;;3.50;1.98;;;21.70;57.20;;;;;;4958300;28;85970;-6
2023/11/27 00:30:13;;;;;;;2.22;1.33;;;21.70;57.20;;;;;;4958826;28;85946;-6
2023/11/27 00:32:38;;;;;;;2.35;1.67;;;21.70;57.10;;;;;;4955411;28;86681;-9
2023/11/27 00:35:05;;;;;;;2.60;1.95;;;21.60;57.10;;;;;;4938007;28;86055;-7
2023/11/27 00:37:31;;;;;;;2.55;1.73;;;21.60;57.10;;;;;;4957699;28;86838;-7
2023/11/27 00:39:59;;;;;;;2.20;1.60;;;21.60;57.10;;;;;;4959394;28;87086;-7
2023/11/27 00:42:25;;;;;;;3.45;1.85;;;21.60;57.10;;;;;;4937755;28;91944;-7
2023/11/27 00:44:50;;;;;;;4.40;2.25;;;21.60;57.10;;;;;;4954389;28;87846;-10
2023/11/27 00:47:17;;;;;;;3.42;1.58;;;21.60;57.00;;;;;;4955988;28;88360;-8
2023/11/27 00:49:43;;;;;;;2.97;1.55;;;21.60;57.00;;;;;;4952027;28;87498;-8
2023/11/27 00:52:08;;;;;;;2.88;1.70;;;21.50;56.90;;;;;;4955125;28;88794;-8
2023/11/27 00:54:34;;;;;;;2.42;1.83;;;21.50;57.00;;;;;;4954321;28;88049;-8
2023/11/27 00:57:00;;;;;;;1.85;1.25;;;21.50;57.10;;;;;;4955907;28;87940;-7
2023/11/27 00:59:26;;;;;;;2.55;1.75;;;21.50;57.10;;;;;;4957917;28;87750;-7
2023/11/27 01:01:51;;;;;;;2.58;1.40;;;21.50;57.00;;;;;;4953856;28;88060;-7
2023/11/27 01:04:17;;;;;;;3.17;1.70;;;21.50;57.10;;;;;;4953821;28;87864;-8
2023/11/27 01:06:43;;;;;;;2.97;1.63;;;21.50;57.80;;;;;;4937459;28;87402;-7
2023/11/27 01:09:09;;;;;;;2.28;1.48;;;21.50;57.10;;;;;;4954783;28;86959;-9
2023/11/27 01:11:34;;;;;;;2.78;1.65;;;21.40;57.00;;;;;;4954398;28;89375;-10
2023/11/27 01:14:00;;;;;;;3.42;1.75;;;21.40;57.00;;;;;;4955714;28;87844;-9
2023/11/27 01:16:26;;;;;;;2.45;1.42;;;21.40;57.20;;;;;;4955562;28;88466;-9
2023/11/27 01:18:52;;;;;;;3.60;1.85;;;21.40;57.00;;;;;;4938530;28;87019;-7
2023/11/27 01:21:18;;;;;;;2.65;1.30;;;21.40;56.90;;;;;;4952838;28;89521;-7
2023/11/27 01:23:44;;;;;;;2.38;1.73;;;21.40;57.00;;;;;;4953967;28;87381;-6
2023/11/27 01:26:10;;;;;;;3.05;1.60;;;21.40;57.10;;;;;;4934403;28;87302;-7
2023/11/27 01:28:36;;;;;;;2.33;1.60;;;21.30;57.10;;;;;;4953498;28;87374;-8
2023/11/27 01:31:03;;;;;;;2.53;1.50;;;21.30;57.20;;;;;;4955270;28;88099;-9
2023/11/27 01:33:29;;;;;;;2.28;1.45;;;21.30;57.30;;;;;;4935693;28;86935;-8
2023/11/27 01:35:55;;;;;;;2.10;1.48;;;21.30;57.20;;;;;;4936031;28;87646;-9
2023/11/27 01:38:20;;;;;;;2.08;1.63;;;21.30;57.10;;;;;;4953212;28;87297;-6
2023/11/27 01:40:46;;;;;;;1.63;1.50;;;21.30;57.20;;;;;;4954179;28;89481;-8
2023/11/27 01:43:15;;;;;;;2.10;1.55;;;21.30;57.20;;;;;;4955624;28;90186;-6
2023/11/27 01:45:42;;;;;;;2.00;1.35;;;21.20;57.10;;;;;;4952940;28;88519;-13
2023/11/27 01:48:08;;;;;;;2.55;1.88;;;21.20;57.20;;;;;;4952591;28;88503;-6
2023/11/27 01:50:34;;;;;;;1.63;1.33;;;21.30;57.10;;;;;;4951689;28;89470;-7
2023/11/27 01:53:01;;;;;;;3.10;1.70;;;21.20;57.20;;;;;;4953916;28;88690;-7
2023/11/27 01:55:28;;;;;;;2.78;1.38;;;21.20;57.10;;;;;;4953087;28;87901;-9
2023/11/27 01:57:55;;;;;;;2.67;1.50;;;21.20;57.20;;;;;;4920921;28;88807;-9
2023/11/27 02:00:22;;;;;;;2.97;1.50;;;21.20;57.20;;;;;;4954945;28;88098;-7
2023/11/27 02:02:49;;;;;;;3.53;2.20;;;21.20;57.10;;;;;;4952112;28;88076;-8
2023/11/27 02:05:16;;;;;;;2.28;1.35;;;21.20;57.20;;;;;;4952671;28;91482;-7
2023/11/27 02:07:42;;;;;;;1.42;1.20;;;21.20;57.20;;;;;;4953735;28;87110;-8
2023/11/27 02:10:09;;;;;;;2.92;1.45;;;21.20;57.10;;;;;;4954285;28;89049;-8
2023/11/27 02:12:34;;;;;;;1.67;1.27;;;21.20;57.20;;;;;;4937814;28;89460;-7
2023/11/27 02:15:00;;;;;;;2.55;1.50;;;21.10;57.10;;;;;;4945529;28;94441;-10
2023/11/27 02:17:26;;;;;;;1.85;1.60;;;21.10;57.10;;;;;;4952354;28;87607;-8
2023/11/27 02:19:52;;;;;;;1.90;1.40;;;21.10;57.10;;;;;;4937490;28;89808;-7
2023/11/27 02:22:17;;;;;;;3.47;1.60;;;21.10;57.00;;;;;;4955090;28;88439;-7
2023/11/27 02:24:43;;;;;;;2.17;1.33;;;21.10;57.00;;;;;;4935614;28;88043;-6
2023/11/27 02:27:09;;;;;;;2.28;1.65;;;21.10;57.10;;;;;;4954720;28;87778;-9
2023/11/27 02:29:35;;;;;;;1.75;1.13;;;21.10;57.30;;;;;;4955479;28;89071;-7
2023/11/27 02:32:04;;;;;;;2.00;1.40;;;21.10;57.20;;;;;;4953496;28;89548;-6
2023/11/27 02:34:29;;;;;;;1.88;1.23;;;21.10;57.10;;;;;;4953883;28;87788;-7
2023/11/27 02:36:55;;;;;;;2.53;1.45;;;21.10;57.10;;;;;;4952668;28;87515;-8
2023/11/27 02:39:21;;;;;;;2.97;1.60;;;21.00;57.00;;;;;;4953335;28;88937;-7
2023/11/27 02:41:47;;;;;;;1.92;1.20;;;21.00;57.10;;;;;;4953642;28;87928;-7
2023/11/27 02:44:14;;;;;;;1.73;1.10;;;21.00;57.00;;;;;;4950852;28;87593;-9
2023/11/27 02:46:41;;;;;;;2.17;1.50;;;21.00;57.20;;;;;;4951448;28;88261;-9
2023/11/27 02:49:07;;;;;;;1.35;1.25;;;21.00;57.00;;;;;;4953602;28;89299;-9
2023/11/27 02:51:42;;;;;;;2.22;1.30;;;21.00;57.00;;;;;;4953481;28;87401;-8
2023/11/27 02:54:07;;;;;;;1.60;1.27;;;21.00;56.90;;;;;;4952415;28;88560;-8
2023/11/27 02:56:33;;;;;;;1.77;1.20;;;21.00;57.10;;;;;;4950265;28;88596;-8
2023/11/27 02:58:59;;;;;;;1.85;1.48;;;21.00;57.10;;;;;;4953006;28;88041;-6
2023/11/27 03:01:26;;;;;;;2.65;1.33;;;21.00;57.20;;;;;;4954912;28;88887;-8
2023/11/27 03:03:52;;;;;;;2.35;1.45;;;20.90;57.00;;;;;;4954545;28;88145;-7
2023/11/27 03:06:18;;;;;;;2.85;1.55;;;20.90;57.00;;;;;;4934275;28;89393;-8
2023/11/27 03:08:44;;;;;;;2.08;1.45;;;20.90;56.90;;;;;;4949545;28;89479;-8
2023/11/27 03:11:11;;;;;;;1.83;1.42;;;20.90;56.70;;;;;;4956975;28;89446;-7
2023/11/27 03:13:37;;;;;;;1.65;1.20;;;20.90;56.70;;;;;;4935962;28;87066;-10
2023/11/27 03:16:03;;;;;;;1.85;1.23;;;20.90;56.80;;;;;;4953748;28;87894;-6
2023/11/27 03:18:29;;;;;;;2.47;1.50;;;20.90;57.10;;;;;;4933914;28;91917;-7
2023/11/27 03:20:54;;;;;;;1.15;1.02;;;20.90;56.80;;;;;;4952831;28;88673;-9
2023/11/27 03:23:20;;;;;;;1.60;1.20;;;20.80;56.70;;;;;;4956007;28;88072;-10
2023/11/27 03:25:46;;;;;;;1.50;1.10;;;20.80;56.90;;;;;;4952923;28;87860;-6
2023/11/27 03:28:12;;;;;;;1.50;1.20;;;20.80;56.90;;;;;;4951478;28;88781;-6
2023/11/27 03:30:38;;;;;;;1.30;1.20;;;20.80;56.80;;;;;;4951929;28;87796;-9
2023/11/27 03:33:04;;;;;;;1.80;1.20;;;20.80;56.70;;;;;;4950580;28;87336;-7
2023/11/27 03:35:31;;;;;;;2.35;1.40;;;20.80;56.90;;;;;;4932659;28;89945;-8
2023/11/27 03:37:56;;;;;;;2.28;1.50;;;20.80;56.80;;;;;;4953796;28;88053;-8
2023/11/27 03:40:22;;;;;;;1.92;1.25;;;20.80;56.80;;;;;;4951853;28;87830;-6
2023/11/27 03:42:48;;;;;;;2.28;1.40;;;20.80;56.70;;;;;;4953532;28;88310;-7
2023/11/27 03:45:14;;;;;;;2.17;1.50;;;20.80;56.70;;;;;;4929890;28;90453;-7
2023/11/27 03:47:39;;;;;;;1.85;1.38;;;20.70;56.70;;;;;;4935333;28;89506;-8
2023/11/27 03:50:06;;;;;;;1.23;1.05;;;20.70;56.70;;;;;;4951334;28;87882;-9
2023/11/27 03:52:33;;;;;;;3.45;1.88;;;20.80;56.70;;;;;;4934926;28;86955;-7
2023/11/27 03:54:59;;;;;;;1.83;1.27;;;20.70;56.80;;;;;;4949682;28;88650;-8
2023/11/27 03:57:24;;;;;;;1.92;1.20;;;20.70;56.70;;;;;;4949474;28;88084;-10
2023/11/27 03:59:50;;;;;;;1.75;1.30;;;20.70;56.70;;;;;;4951989;28;89792;-9
2023/11/27 04:02:17;;;;;;;1.60;1.20;;;20.70;56.60;;;;;;4938081;28;88010;-8
2023/11/27 04:04:43;;;;;;;1.35;1.20;;;20.70;56.50;;;;;;4950897;28;88067;-10
2023/11/27 04:07:08;;;;;;;1.50;1.25;;;20.70;56.60;;;;;;4954623;28;88980;-10
2023/11/27 04:09:34;;;;;;;1.55;1.00;;;20.70;56.60;;;;;;4933842;28;89796;-9
2023/11/27 04:12:00;;;;;;;1.63;1.35;;;20.70;56.60;;;;;;4953782;28;87551;-7
2023/11/27 04:14:26;;;;;;;1.27;1.02;;;20.70;56.50;;;;;;4954781;28;87676;-7
2023/11/27 04:16:52;;;;;;;2.20;1.40;;;20.70;56.50;;;;;;4951830;28;87906;-8
2023/11/27 04:19:19;;;;;;;1.60;1.25;;;20.60;56.50;;;;;;4936397;28;87419;-8
2023/11/27 04:21:44;;;;;;;1.58;1.20;;;20.60;56.40;;;;;;4954309;28;87708;-6
2023/11/27 04:24:10;;;;;;;2.10;1.52;;;20.60;56.50;;;;;;4953327;28;87458;-7
2023/11/27 04:26:38;;;;;;;2.15;1.30;;;20.60;56.60;;;;;;4955400;28;88279;-7
2023/11/27 04:29:05;;;;;;;1.70;1.23;;;20.60;56.60;;;;;;4922483;28;90001;-9
2023/11/27 04:31:32;;;;;;;1.80;1.40;;;20.60;56.50;;;;;;4934963;28;88661;-7
2023/11/27 04:33:58;;;;;;;1.50;0.95;;;20.60;56.40;;;;;;4952125;28;88046;-7
2023/11/27 04:36:24;;;;;;;2.45;1.33;;;20.60;56.60;;;;;;4955220;28;87925;-9
2023/11/27 04:38:49;;;;;;;2.22;1.48;;;20.60;56.50;;;;;;4951716;28;87992;-6
2023/11/27 04:41:16;;;;;;;1.50;1.20;;;20.60;56.50;;;;;;4953775;28;87326;-6
2023/11/27 04:43:42;;;;;;;3.25;1.50;;;20.60;56.40;;;;;;4950729;28;88401;-9
2023/11/27 04:46:08;;;;;;;1.45;1.30;;;20.60;56.50;;;;;;4954668;28;87543;-7
2023/11/27 04:48:34;;;;;;;1.65;1.00;;;20.50;56.20;;;;;;4951724;28;87775;-9
2023/11/27 04:51:01;;;;;;;2.55;1.55;;;20.50;56.30;;;;;;4953350;28;87221;-7
2023/11/27 04:53:27;;;;;;;1.60;0.90;;;20.50;56.30;;;;;;4952986;28;88020;-8
2023/11/27 04:55:52;;;;;;;1.90;1.20;;;20.50;56.30;;;;;;4932764;28;89332;-9
2023/11/27 04:58:18;;;;;;;2.75;1.40;;;20.50;56.20;;;;;;4955298;28;88272;-7
2023/11/27 05:00:43;;;;;;;1.50;1.10;;;20.50;56.20;;;;;;4955331;28;87094;-8
2023/11/27 05:03:09;;;;;;;1.23;1.00;;;20.50;56.10;;;;;;4956857;28;87552;-7
2023/11/27 05:05:36;;;;;;;1.35;1.17;;;20.50;56.10;;;;;;4934883;28;89897;-6
2023/11/27 05:08:02;;;;;;;1.55;1.40;;;20.50;56.20;;;;;;4953390;28;90022;-9
2023/11/27 05:10:28;;;;;;;1.30;0.90;;;20.50;56.30;;;;;;4935921;28;87575;-7
2023/11/27 05:12:53;;;;;;;1.52;1.08;;;20.50;56.10;;;;;;4954012;28;86675;-9
2023/11/27 05:15:19;;;;;;;1.83;0.90;;;20.50;56.10;;;;;;4955446;28;87882;-6
2023/11/27 05:17:47;;;;;;;1.10;1.00;;;20.50;56.10;;;;;;4956059;28;88292;-6
2023/11/27 05:20:12;;;;;;;1.85;1.15;;;20.50;56.10;;;;;;4953307;28;89036;-6
2023/11/27 05:22:39;;;;;;;2.03;1.45;;;20.50;56.10;;;;;;4960226;28;87937;-7
2023/11/27 05:25:05;;;;;;;0.90;0.90;;;20.40;56.90;;;;;;4936994;28;88627;-8
2023/11/27 05:27:31;;;;;;;1.45;1.15;;;20.40;56.00;;;;;;4936268;28;88075;-7
2023/11/27 05:29:57;;;;;;;1.85;1.40;;;20.40;56.20;;;;;;4955935;28;86924;-8
2023/11/27 05:32:22;;;;;;;1.05;0.88;;;20.40;56.10;;;;;;4961097;28;87305;-6
2023/11/27 05:34:48;;;;;;;1.38;1.00;;;20.40;56.10;;;;;;4958303;28;88995;-6
2023/11/27 05:37:14;;;;;;;1.52;1.10;;;20.40;56.10;;;;;;4956883;28;87641;-8
2023/11/27 05:39:41;;;;;;;1.45;1.10;;;20.40;56.10;;;;;;4951895;28;87211;-6
2023/11/27 05:42:11;;;;;;;1.15;1.05;;;20.40;56.10;;;;;;4933298;28;88076;-8
2023/11/27 05:47:03;;;;;;;1.40;1.00;;;20.40;56.10;;;;;;4934850;28;91354;-7
2023/11/27 05:49:31;;;;;;;1.45;1.00;;;20.40;56.10;;;;;;4952903;28;87571;-8
2023/11/27 05:51:58;;;;;;;1.37;0.97;;;20.40;56.10;;;;;;4953605;28;88652;-10
2023/11/27 05:54:26;;;;;;;1.58;1.20;;;20.40;56.10;;;;;;4940390;28;89331;-7
2023/11/27 05:56:52;;;;;;;1.50;1.17;;;20.30;56.00;;;;;;4953696;28;87974;-7
2023/11/27 05:59:18;;;;;;;1.85;1.25;;;20.30;56.00;;;;;;4954604;28;87730;-10
2023/11/27 06:01:44;;;;;;;1.48;1.30;;;20.30;56.00;;;;;;4954907;28;87081;-8
2023/11/27 06:04:10;;;;;;;1.40;1.00;;;20.30;56.00;;;;;;4954868;28;88146;-9
2023/11/27 06:06:36;;;;;;;1.98;1.35;;;20.30;56.00;;;;;;4952749;28;88475;-7
2023/11/27 06:09:02;;;;;;;2.08;1.27;;;20.40;56.10;;;;;;4956851;28;88659;-7
2023/11/27 06:11:27;;;;;;;1.75;1.13;;;20.30;55.90;;;;;;4961425;28;87571;-10
2023/11/27 06:13:53;;;;;;;1.52;1.08;;;20.30;56.20;;;;;;4957113;28;88470;-7
2023/11/27 06:16:20;;;;;;;1.42;0.90;;;20.30;56.00;;;;;;4955037;28;88048;-6
2023/11/27 06:18:45;;;;;;;1.52;1.17;;;20.30;56.10;;;;;;4935140;28;89248;-7
2023/11/27 06:21:11;;;;;;;1.27;1.02;;;20.30;56.00;;;;;;4937506;28;87785;-8
2023/11/27 06:23:37;;;;;;;2.22;0.98;;;20.30;55.30;;;;;;4955022;28;87946;-9
2023/11/27 06:26:03;;;;;;;1.27;0.85;;;20.20;55.40;;;;;;4935002;28;90823;-9
2023/11/27 06:28:28;;;;;;;1.30;0.90;;;20.20;55.40;;;;;;4935609;28;87960;-7
2023/11/27 06:30:54;;;;;;;1.88;1.40;;;20.20;55.30;;;;;;4953635;28;88554;-8
2023/11/27 06:33:20;;;;;;;1.20;1.10;;;20.20;55.30;;;;;;4934958;28;90209;-8
2023/11/27 06:35:48;;;;;;;1.77;1.10;;;20.20;55.10;;;;;;4955495;28;88922;-10
2023/11/27 06:38:16;;;;;;;1.27;1.08;;;20.20;55.20;;;;;;4952952;28;87739;-6
2023/11/27 06:40:42;;;;;;;2.05;0.90;;;20.20;55.00;;;;;;4952878;28;86978;-7
2023/11/27 06:43:08;;;;;;;1.40;0.90;;;20.10;54.90;;;;;;4936445;28;88442;-9
2023/11/27 06:45:34;;;;;;;1.30;1.08;;;20.10;55.00;;;;;;4955095;28;88438;-7
2023/11/27 06:48:00;;;;;;;1.20;1.00;;;20.10;54.80;;;;;;4952627;28;90532;-6
2023/11/27 06:50:26;;;;;;;0.80;0.80;;;20.10;55.00;;;;;;4955338;28;87645;-7
2023/11/27 06:52:52;;;;;;;2.63;1.35;;;20.10;55.00;;;;;;4955494;28;88090;-7
2023/11/27 06:55:17;;;;;;;2.40;1.00;;;20.10;54.80;;;;;;4952653;28;90136;-7
2023/11/27 06:57:43;;;;;;;2.67;1.17;;;20.10;54.80;;;;;;4952492;28;88526;-7
2023/11/27 07:00:10;;;;;;;1.05;0.95;;;20.10;54.80;;;;;;4953538;28;88736;-7
2023/11/27 07:02:36;;;;;;;1.42;1.15;;;20.10;54.90;;;;;;4956595;28;87290;-6
2023/11/27 07:05:05;;;;;;;0.73;0.73;;;20.10;54.80;;;;;;4958111;28;87786;-8
2023/11/27 07:07:30;;;;;;;1.17;0.98;;;20.10;54.70;;;;;;4936561;28;87384;-6
2023/11/27 07:09:56;;;;;;;1.40;1.10;;;20.10;54.80;;;;;;4936449;28;88015;-7
2023/11/27 07:12:23;;;;;;;3.28;0.95;;;20.00;54.80;;;;;;4954154;28;88056;-7
2023/11/27 07:14:49;;;;;;;1.75;1.02;;;20.00;54.70;;;;;;4953672;28;88538;-8
2023/11/27 07:17:15;;;;;;;1.42;1.10;;;20.10;54.90;;;;;;4953687;28;87189;-7
2023/11/27 07:19:41;;;;;;;0.95;0.85;;;20.00;54.80;;;;;;4952729;28;87919;-7
2023/11/27 07:22:07;;;;;;;1.65;0.77;;;20.00;55.40;;;;;;4953197;28;90010;-7
2023/11/27 07:24:33;;;;;;;1.40;0.85;;;20.00;54.70;;;;;;4935828;28;89820;-8
2023/11/27 07:26:59;;;;;;;1.67;1.30;;;20.00;54.80;;;;;;4953152;28;88588;-6
2023/11/27 07:29:24;;;;;;;1.40;0.98;;;20.00;55.00;;;;;;4954667;28;88721;-7
2023/11/27 07:31:50;;;;;;;1.73;1.10;;;20.10;55.00;;;;;;4952967;28;87151;-7
2023/11/27 07:34:16;;;;;;;1.83;1.15;;;20.10;55.20;;;;;;4953547;28;88376;-7
2023/11/27 07:36:41;;;;;;;2.13;1.00;;;20.10;55.70;;;;;;4951914;28;87300;-6
2023/11/27 07:39:08;;;;;;;1.63;1.30;;;20.10;55.70;;;;;;4952978;28;86621;-7
2023/11/27 07:41:35;;;;;;;5.00;1.45;;;20.20;56.00;;;;;;4956627;28;89093;-9
2023/11/27 07:44:01;;;;;;;11.35;3.63;;;20.10;56.00;;;;;;4954333;28;87916;-7
2023/11/27 07:46:27;;;;;;;4.78;2.25;;;20.20;55.70;;;;;;4953997;28;88598;-9
2023/11/27 07:48:53;;;;;;;12.10;2.88;;;20.20;55.80;;;;;;4937779;28;90067;-7
2023/11/27 07:51:18;;;;;;;5.07;2.00;;;20.30;55.90;;;;;;4950764;28;88860;-7
2023/11/27 07:53:47;;;;;;;11.20;2.28;;;20.30;56.00;;;;;;4933693;28;87351;-7
2023/11/27 07:56:13;;;;;;;5.57;1.73;;;20.40;56.10;;;;;;4954146;28;87896;-8
2023/11/27 07:58:41;;;;;;;4.82;2.15;;;20.40;56.10;;;;;;4953134;28;87733;-7
2023/11/27 08:01:47;;;;;;;6.57;2.20;;;20.40;56.20;;;;;;4935538;28;90192;-8
2023/11/27 08:04:16;;;;;;;;;;;20.50;56.40;;;;;;4923625;28;92392;-7
2023/11/27 08:06:49;;;;;;;6.80;1.67;;;20.50;56.60;;;;;;4959673;28;87900;-9
2023/11/27 08:09:28;;;;;;;4.75;2.25;;;20.60;56.70;;;;;;4943564;28;87210;-7
2023/11/27 08:11:54;;;;;;;3.40;1.90;;;20.60;56.60;;;;;;4953623;28;88557;-7
2023/11/27 08:14:24;;;;;;;3.88;1.75;;;20.60;56.60;;;;;;4935977;28;89508;-9
2023/11/27 08:16:51;;;;;;;6.75;1.73;;;20.60;57.00;;;;;;4947798;28;88021;-8
2023/11/27 08:19:17;;;;;;;7.70;1.88;;;20.60;57.00;;;;;;4955206;28;87719;-7
2023/11/27 08:21:44;;;;;;;7.05;1.70;;;20.70;57.10;;;;;;4953144;28;88170;-7
2023/11/27 08:24:13;;;;;;;4.30;1.85;;;20.70;57.10;;;;;;4954337;28;90048;-7
2023/11/27 08:26:39;;;;;;;4.18;1.73;;;20.70;56.80;;;;;;4951204;28;87430;-6
2023/11/27 08:29:07;;;;;;;5.07;1.83;;;20.70;57.00;;;;;;4952129;28;88429;-8
2023/11/27 08:31:34;;;;;;;10.38;1.52;;;20.70;56.70;;;;;;4954171;28;89814;-9
2023/11/27 08:33:59;;;;;;;3.83;1.45;;;20.70;56.80;;;;;;4956749;28;88010;-9
2023/11/27 08:36:25;;;;;;;7.13;2.17;;;20.80;56.90;;;;;;4955251;28;88334;-8
2023/11/27 08:38:57;;;;;;;6.22;1.73;;;20.80;56.90;;;;;;4951444;28;89089;-7
2023/11/27 08:41:23;;;;;;;5.63;2.20;;;20.80;57.10;;;;;;4951808;28;89873;-9
2023/11/27 08:43:49;;;;;;;5.03;1.52;;;20.80;56.70;;;;;;4952980;28;87782;-10
2023/11/27 08:46:15;;;;;;;2.47;1.38;;;20.80;57.00;;;;;;4956632;28;87487;-7
2023/11/27 08:48:41;;;;;;;6.68;1.58;;;20.80;56.60;;;;;;4957636;28;87524;-8
2023/11/27 08:51:09;;;;;;;3.22;1.20;;;20.90;55.50;;;;;;4936846;28;91196;-8
2023/11/27 08:53:35;;;;;;;3.75;1.40;;;20.90;56.00;;;;;;4955475;28;87805;-7
2023/11/27 08:56:02;;;;;;;9.65;1.73;;;20.80;56.10;;;;;;4952875;28;87469;-8
2023/11/27 08:58:32;;;;;;;3.85;1.80;;;20.90;56.30;;;;;;4954688;28;87741;-10
2023/11/27 09:00:57;;;;;;;12.40;2.13;;;20.90;56.30;;;;;;4937662;28;88696;-11
2023/11/27 09:03:23;;;;;;;4.60;1.45;;;20.90;56.50;;;;;;4955306;28;89754;-7
2023/11/27 09:05:49;;;;;;;3.05;1.15;;;20.90;56.50;;;;;;4957869;28;87391;-9
2023/11/27 09:08:16;;;;;;;2.15;1.05;;;20.90;56.80;;;;;;4956740;28;88382;-7
2023/11/27 09:10:41;;;;;;;5.35;1.50;;;21.00;57.20;;;;;;4955096;28;88210;-7
2023/11/27 09:13:07;;;;;;;12.63;2.38;;;21.00;57.70;;;;;;4953905;28;87800;-8
2023/11/27 09:15:33;;;;;;;7.13;1.98;;;21.00;58.10;;;;;;4951668;28;87405;-7
2023/11/27 09:17:59;;;;;;;7.63;2.55;;;21.10;58.10;;;;;;4954161;28;87599;-7
2023/11/27 09:20:27;;;;;;;6.93;2.88;;;21.10;58.10;;;;;;4952339;28;88992;-6
2023/11/27 09:22:52;;;;;;;10.77;3.03;;;21.10;58.20;;;;;;4953952;28;87830;-6
2023/11/27 09:25:18;;;;;;;9.20;3.58;;;21.10;58.30;;;;;;4957263;28;88506;-8
2023/11/27 09:27:46;;;;;;;6.32;2.97;;;21.10;58.90;;;;;;4954212;28;87231;-7
2023/11/27 09:30:12;;;;;;;8.32;2.95;;;21.10;59.40;;;;;;4955079;28;87915;-9
2023/11/27 09:32:38;;;;;;;6.60;2.38;;;21.10;58.90;;;;;;4956528;28;87629;-7
2023/11/27 09:35:12;;;;;;;7.88;2.58;;;21.10;58.60;;;;;;4952015;28;87407;-8
2023/11/27 09:37:39;;;;;;;15.77;3.58;;;21.10;58.60;;;;;;4953275;28;88587;-9
2023/11/27 09:40:07;;;;;;;13.45;2.97;;;21.10;58.70;;;;;;4955479;28;88887;-6
2023/11/27 09:42:36;;;;;;;4.35;2.22;;;21.10;58.80;;;;;;4954201;28;87819;-9
2023/11/27 09:45:07;;;;;;;14.57;2.58;;;21.10;58.60;;;;;;4956820;28;87441;-9
2023/11/27 09:47:34;;;;;;;16.88;2.72;;;21.10;58.60;;;;;;4958103;28;87608;-6
2023/11/27 09:50:01;;;;;;;5.05;2.10;;;21.10;58.20;;;;;;4957007;28;89378;-9
2023/11/27 09:52:59;;;;;;;2.75;1.73;;;21.20;58.20;;;;;;4935678;28;90463;-8
2023/11/27 09:55:31;;;;;;;5.38;2.30;;;21.20;58.00;;;;;;4960385;28;88081;-7
2023/11/27 09:57:59;;;;;;;3.90;2.53;;;21.20;57.70;;;;;;4952795;28;93534;-9
2023/11/27 10:00:27;;;;;;;6.70;2.13;;;21.20;57.70;;;;;;4941150;28;92301;-8
2023/11/27 10:02:53;;;;;;;7.13;1.85;;;21.20;57.40;;;;;;4958917;28;88621;-5
2023/11/27 10:05:21;;;;;;;2.72;1.90;;;21.30;56.50;;;;;;4949963;28;87768;-9
2023/11/27 10:07:50;;;;;;;6.25;2.05;;;21.30;55.60;;;;;;4954931;28;86778;-7
2023/11/27 10:10:22;;;;;;;4.85;2.08;;;21.30;55.00;;;;;;4952885;28;88614;-6
2023/11/27 10:12:49;;;;;;;6.40;2.17;;;21.30;55.00;;;;;;4952584;28;89674;-9
2023/11/27 10:15:16;;;;;;;8.30;2.33;;;21.30;55.10;;;;;;4952121;28;88310;-9
2023/11/27 10:17:43;;;;;;;3.45;1.70;;;21.30;55.50;;;;;;4953025;28;87439;-6
2023/11/27 10:20:12;;;;;;;5.30;1.90;;;21.30;55.80;;;;;;4954606;28;87993;-8
2023/11/27 10:22:42;;;;;;;;;;;21.30;53.30;;;;;;4952600;28;89367;-6
2023/11/27 10:25:13;;;;;;;5.38;1.88;;;21.30;52.60;;;;;;4953232;28;87545;-10
2023/11/27 10:27:54;;;;;;;4.10;1.90;;;21.30;54.40;;;;;;4950686;28;87586;-7
2023/11/27 10:30:21;;;;;;;4.82;1.77;;;21.20;55.50;;;;;;4952452;28;88551;-7
2023/11/27 10:32:52;;;;;;;4.85;2.17;;;21.20;55.20;;;;;;4949594;28;89356;-6
2023/11/27 10:35:20;;;;;;;8.75;1.92;;;21.20;55.20;;;;;;4937321;28;87324;-8
2023/11/27 10:37:49;;;;;;;3.83;1.80;;;21.20;52.30;;;;;;4958382;28;88195;-10
2023/11/27 10:40:17;;;;;;;3.28;1.63;;;21.30;53.30;;;;;;4949041;28;89615;-8
2023/11/27 10:42:48;;;;;;;2.53;1.50;;;21.30;54.30;;;;;;4950074;28;89540;-10
2023/11/27 10:45:23;;;;;;;2.42;1.35;;;21.30;54.60;;;;;;4954136;28;87513;-20
2023/11/27 10:47:51;;;;;;;5.07;1.50;;;21.30;54.70;;;;;;4957232;28;87585;-9
2023/11/27 10:50:18;;;;;;;5.63;1.27;;;21.40;54.90;;;;;;4950512;28;88616;-8
2023/11/27 10:52:49;;;;;;;5.43;1.88;;;21.40;54.90;;;;;;4950618;28;87748;-7
2023/11/27 10:55:19;;;;;;;2.35;1.40;;;21.40;55.20;;;;;;4955058;28;87727;-7
2023/11/27 10:57:47;;;;;;;4.38;1.77;;;21.40;55.20;;;;;;4953282;28;87229;-10
2023/11/27 11:00:30;;;;;;;5.32;2.10;;;21.50;55.20;;;;;;4952736;28;88152;-10
2023/11/27 11:03:03;;;;;;;4.40;1.50;;;21.50;55.20;;;;;;4954887;28;87830;-10
2023/11/27 11:05:50;;;;;;;8.70;2.47;;;21.50;55.50;;;;;;4951518;28;88642;-9
2023/11/27 11:08:26;;;;;;;3.03;1.05;;;21.50;55.50;;;;;;4950271;28;88100;-10
2023/11/27 11:10:57;;;;;;;5.82;1.50;;;21.50;55.90;;;;;;4953403;28;89608;-9
2023/11/27 11:13:25;;;;;;;4.60;1.50;;;21.40;56.10;;;;;;4952077;28;89303;-7
2023/11/27 11:15:58;;;;;;;5.25;1.67;;;21.40;56.10;;;;;;4936420;28;87773;-11
2023/11/27 11:18:43;;;;;;;4.60;1.80;;;21.40;56.10;;;;;;4951784;28;87728;-10
2023/11/27 11:21:39;;;;;;;5.20;1.70;;;21.40;56.00;;;;;;4932447;28;89325;-7
2023/11/27 11:24:29;;;;;;;2.63;1.23;;;21.40;56.10;;;;;;4933803;28;88892;-10
2023/11/27 11:27:19;;;;;;;6.20;1.90;;;21.40;56.20;;;;;;4949175;28;87883;-5
2023/11/27 11:29:46;;;;;;;4.75;2.08;;;21.40;56.30;;;;;;4930761;28;90213;-7
2023/11/27 11:32:16;;;;;;;4.35;1.48;;;21.40;56.00;;;;;;4952009;28;90614;-9
2023/11/27 11:34:46;;;;;;;4.53;1.40;;;21.50;56.60;;;;;;4948660;28;88635;-8
2023/11/27 11:37:14;;;;;;;5.47;1.38;;;21.50;56.60;;;;;;4951118;28;87704;-7
2023/11/27 11:39:47;;;;;;;3.15;1.35;;;21.40;56.80;;;;;;4930075;28;89956;-10
2023/11/27 11:42:17;;;;;;;3.97;1.60;;;21.50;57.10;;;;;;4929025;28;88864;-9
2023/11/27 11:45:18;;;;;;;3.65;1.33;;;21.50;58.90;;;;;;4951031;28;89449;-9
2023/11/27 11:47:51;;;;;;;6.88;1.92;;;21.50;59.10;;;;;;4951244;28;87338;-6
2023/11/27 11:50:30;;;;;;;2.83;1.63;;;21.50;60.80;;;;;;4952303;28;88655;-8
2023/11/27 11:53:21;;;;;;;6.18;1.80;;;21.50;57.60;;;;;;4933251;28;89888;-9
2023/11/27 11:55:50;;;;;;;3.67;1.63;;;21.50;56.60;;;;;;4947185;28;88319;-6
2023/11/27 11:58:18;;;;;;;9.35;1.65;;;21.50;55.90;;;;;;4948310;28;88983;-6
2023/11/27 12:00:48;;;;;;;7.50;1.77;;;21.50;56.30;;;;;;4949150;28;87343;-9
2023/11/27 12:03:16;;;;;;;5.93;1.80;;;21.50;56.30;;;;;;4949632;28;88423;-8
2023/11/27 12:05:49;;;;;;;10.70;2.15;;;21.40;56.00;;;;;;4937518;28;90347;-6
2023/11/27 12:08:23;;;;;;;8.18;1.98;;;21.40;56.20;;;;;;4958206;28;87476;-8
2023/11/27 12:10:51;;;;;;;4.43;1.95;;;21.50;56.40;;;;;;4936175;28;89110;-9
2023/11/27 12:13:20;;;;;;;8.15;2.03;;;21.50;56.50;;;;;;4953795;28;87871;-7
2023/11/27 12:15:47;;;;;;;7.43;1.88;;;21.50;56.50;;;;;;4953201;28;88113;-8
2023/11/27 12:18:14;;;;;;;10.50;2.35;;;21.50;56.60;;;;;;4954011;28;88892;-7
2023/11/27 12:20:42;;;;;;;10.48;2.97;;;21.50;56.30;;;;;;4953785;28;87798;-9
2023/11/27 12:23:12;;;;;;;11.70;2.70;;;21.50;56.30;;;;;;4953465;28;89121;-10
2023/11/27 12:25:41;;;;;;;7.32;2.67;;;21.50;56.20;;;;;;4954560;28;88917;-7
2023/11/27 12:28:10;;;;;;;19.63;3.23;;;21.50;56.20;;;;;;4956226;28;87612;-7
2023/11/27 12:30:36;;;;;;;8.23;2.72;;;21.60;56.30;;;;;;4958685;28;87628;-9
2023/11/27 12:33:04;;;;;;;7.72;2.45;;;21.60;56.40;;;;;;4957205;28;88561;-7
2023/11/27 12:35:33;;;;;;;5.45;2.28;;;21.60;56.50;;;;;;4958413;28;89557;-6
2023/11/27 12:38:06;;;;;;;5.68;2.55;;;21.60;56.20;;;;;;4955420;28;87566;-7
2023/11/27 12:40:34;;;;;;;7.22;2.17;;;21.60;56.20;;;;;;4953038;28;87512;-7
2023/11/27 12:43:04;;;;;;;11.73;2.67;;;21.50;55.90;;;;;;4954996;28;89435;-8
2023/11/27 12:45:31;;;;;;;7.68;2.30;;;21.50;56.00;;;;;;4953353;28;87717;-8
2023/11/27 12:47:58;;;;;;;8.32;2.42;;;21.50;56.00;;;;;;4955288;28;88423;-6
2023/11/27 12:50:31;;;;;;;8.20;2.58;;;21.50;56.10;;;;;;4955255;28;88686;-7
2023/11/27 12:53:07;;;;;;;6.45;2.42;;;21.50;56.00;;;;;;4955576;28;88221;-9
2023/11/27 12:55:49;;;;;;;8.10;2.72;;;21.50;56.20;;;;;;4953784;28;89326;-7
2023/11/27 12:58:21;;;;;;;8.88;2.65;;;21.50;56.20;;;;;;4958266;28;87582;-8
2023/11/27 13:00:48;;;;;;;11.60;2.63;;;21.50;56.10;;;;;;4953179;28;88561;-9